createdAt,value
2023-02-06T00:03:57.916Z,6.39799331103679
2023-02-06T00:10:43.322Z,5.913043478260869
2023-02-06T00:17:04.497Z,6.695652173913044
2023-02-06T00:23:25.748Z,6.698996655518394
2023-02-06T00:29:45.834Z,6.8561872909699
2023-02-06T00:36:06.695Z,8.187290969899665
2023-02-06T00:42:27.775Z,9.759197324414716
2023-02-06T00:48:50.166Z,8.03010033444816
2023-02-06T01:03:45.918Z,6.0
2023-02-06T01:10:09.409Z,5.11371237458194
2023-02-06T01:21:38.637Z,5.424749163879599
2023-02-06T01:28:00.823Z,5.441471571906354
2023-02-06T01:54:09.901Z,7.294314381270903
2023-02-06T02:00:30.970Z,7.956521739130435
2023-02-06T02:07:12.096Z,8.25752508361204
2023-02-06T02:17:48.473Z,6.668896321070235
2023-02-06T02:24:10.931Z,7.287625418060201
2023-02-06T02:32:58.867Z,6.866220735785953
2023-02-06T02:45:32.431Z,5.501672240802676
2023-02-06T02:51:53.933Z,5.461538461538462
2023-02-06T03:01:00.241Z,5.331103678929765
2023-02-06T03:07:21.952Z,4.65886287625418
2023-02-06T03:13:43.835Z,4.351170568561873
2023-02-06T03:22:22.682Z,5.88628762541806
2023-02-06T03:28:45.193Z,3.6555183946488294
2023-02-06T03:40:21.925Z,6.040133779264214
2023-02-06T03:46:45.196Z,5.739130434782608
2023-02-06T03:53:06.368Z,4.394648829431438
2023-02-06T04:05:22.397Z,4.792642140468227
2023-02-06T04:16:14.644Z,4.003344481605351
2023-02-06T04:22:36.895Z,4.852842809364549
2023-02-06T04:29:01.477Z,5.4280936454849495
2023-02-06T04:35:23.448Z,4.234113712374582
2023-02-06T04:44:51.144Z,3.5150501672240804
2023-02-06T04:54:56.543Z,4.745819397993311
2023-02-06T05:01:18.259Z,4.8361204013377925
2023-02-06T05:07:40.856Z,5.117056856187291
2023-02-06T05:23:34.716Z,8.438127090301004
2023-02-06T05:29:56.476Z,9.327759197324415
2023-02-06T05:36:18.853Z,8.103678929765886
2023-02-06T05:44:37.443Z,8.03010033444816
2023-02-06T05:50:59.299Z,6.2207357859531776
2023-02-06T05:57:20.982Z,5.896321070234114
2023-02-06T06:12:35.201Z,4.735785953177258
2023-02-06T06:18:58.006Z,5.2274247491638794
2023-02-06T06:25:20.928Z,5.852842809364549
2023-02-06T06:32:30.289Z,6.842809364548495
2023-02-06T06:38:53.042Z,6.488294314381271
2023-02-06T06:45:15.499Z,5.3076923076923075
2023-02-06T06:53:17.079Z,4.936454849498328
2023-02-06T06:59:41.061Z,5.54180602006689
2023-02-06T07:06:03.462Z,5.65886287625418
2023-02-06T07:16:27.946Z,6.274247491638796
2023-02-06T07:22:52.648Z,6.585284280936455
2023-02-06T07:29:21.722Z,7.096989966555184
2023-02-06T07:35:46.490Z,6.2842809364548495
2023-02-06T07:46:09.713Z,6.3244147157190636
2023-02-06T07:53:55.481Z,9.036789297658864
2023-02-06T08:03:12.216Z,9.414715719063546
2023-02-06T08:09:38.014Z,6.290969899665551
2023-02-06T08:16:06.341Z,5.214046822742475
2023-02-06T08:24:50.171Z,4.45819397993311
2023-02-06T08:38:18.030Z,3.882943143812709
2023-02-06T08:49:23.399Z,4.334448160535117
2023-02-06T08:55:49.543Z,5.816053511705686
2023-02-06T09:02:14.285Z,6.05685618729097
2023-02-06T09:11:43.773Z,8.08361204013378
2023-02-06T09:18:08.139Z,7.832775919732441
2023-02-06T09:24:32.564Z,9.474916387959865
2023-02-06T09:36:59.231Z,7.545150501672241
2023-02-06T09:47:55.429Z,6.2441471571906355
2023-02-06T09:54:19.169Z,8.240802675585284
2023-02-06T10:00:43.609Z,8.157190635451505
2023-02-06T10:07:08.004Z,7.474916387959866
2023-02-06T10:13:33.069Z,7.568561872909699
2023-02-06T10:19:57.152Z,6.662207357859532
2023-02-06T10:26:21.393Z,5.802675585284281
2023-02-06T10:33:00.523Z,5.086956521739131
2023-02-06T10:39:24.907Z,5.879598662207358
2023-02-06T10:49:07.142Z,5.137123745819398
2023-02-06T10:55:32.548Z,6.668896321070235
2023-02-06T11:06:40.495Z,5.919732441471572
2023-02-06T11:13:42.209Z,5.525083612040134
2023-02-06T11:20:08.514Z,4.448160535117057
2023-02-06T11:26:32.785Z,5.7725752508361206
2023-02-06T11:33:04.296Z,6.936454849498328
2023-02-06T11:44:39.280Z,7.230769230769231
2023-02-06T11:51:03.768Z,8.525083612040135
2023-02-06T11:59:20.364Z,5.735785953177258
2023-02-06T12:11:12.582Z,6.20066889632107
2023-02-06T12:18:22.009Z,5.37123745819398
2023-02-06T12:24:46.474Z,4.478260869565218
2023-02-06T12:31:10.017Z,4.862876254180602
2023-02-06T12:40:16.349Z,4.695652173913044
2023-02-06T13:03:25.284Z,6.050167224080267
2023-02-06T13:09:49.713Z,3.528428093645485
2023-02-06T13:16:12.980Z,4.1806020066889635
2023-02-06T13:22:37.885Z,3.729096989966555
2023-02-06T13:29:01.430Z,4.648829431438127
2023-02-06T13:35:25.179Z,2.9464882943143813
2023-02-06T13:41:49.021Z,3.180602006688963
2023-02-06T13:48:11.970Z,3.4782608695652173
2023-02-06T13:56:53.391Z,3.6053511705685617
2023-02-06T14:05:20.898Z,4.712374581939799
2023-02-06T14:11:44.695Z,3.4414715719063547
2023-02-06T14:20:44.000Z,4.133779264214047
2023-02-06T14:27:57.149Z,3.8160535117056855
2023-02-06T14:39:04.847Z,3.9933110367892977
2023-02-06T14:45:33.781Z,2.6220735785953178
2023-02-06T14:52:03.222Z,3.160535117056856
2023-02-06T14:59:29.245Z,3.6254180602006687
2023-02-06T15:05:53.928Z,3.5953177257525084
2023-02-06T15:12:18.610Z,4.2274247491638794
2023-02-06T15:18:44.583Z,3.1103678929765888
2023-02-06T15:25:09.806Z,3.903010033444816
2023-02-06T15:31:36.661Z,2.9130434782608696
2023-02-06T15:38:01.613Z,2.652173913043478
2023-02-06T15:45:47.822Z,3.809364548494983
2023-02-06T15:56:06.757Z,4.40133779264214
2023-02-06T16:02:32.299Z,3.5016722408026757
2023-02-06T16:15:24.248Z,3.6454849498327757
2023-02-06T16:21:48.789Z,4.2842809364548495
2023-02-06T16:28:11.463Z,3.5618729096989967
2023-02-06T16:34:34.167Z,4.421404682274248
2023-02-06T16:40:55.758Z,3.5050167224080266
2023-02-06T16:47:17.362Z,5.0
2023-02-06T16:57:00.341Z,5.765886287625418
2023-02-06T17:03:21.562Z,4.59866220735786
2023-02-06T17:09:42.930Z,5.3076923076923075
2023-02-06T17:16:04.814Z,5.153846153846154
2023-02-06T17:22:26.814Z,3.789297658862876
2023-02-06T17:28:48.207Z,5.173913043478261
2023-02-06T17:46:39.353Z,5.494983277591973
2023-02-06T18:11:49.760Z,6.207357859531773
2023-02-06T18:24:18.198Z,6.187290969899665
2023-02-06T18:35:19.594Z,4.822742474916388
2023-02-06T18:41:41.889Z,5.725752508361204
2023-02-06T18:54:01.402Z,5.906354515050167
2023-02-06T19:03:11.847Z,6.555183946488294
2023-02-06T19:21:05.302Z,7.40133779264214
2023-02-06T19:27:29.415Z,7.438127090301004
2023-02-06T19:33:51.729Z,5.956521739130435
2023-02-06T19:45:46.222Z,4.789297658862877
2023-02-06T19:52:08.397Z,4.896321070234114
2023-02-06T19:58:31.270Z,5.070234113712375
2023-02-06T20:04:53.044Z,4.866220735785953
2023-02-06T20:20:17.585Z,5.167224080267559
2023-02-06T20:32:40.900Z,6.608695652173913
2023-02-06T20:39:02.305Z,5.177257525083612
2023-02-06T20:45:23.992Z,4.645484949832776
2023-02-06T20:51:46.857Z,5.130434782608695
2023-02-06T20:58:08.675Z,3.9498327759197323
2023-02-06T21:07:49.698Z,6.1438127090301
2023-02-06T21:14:12.736Z,4.956521739130435
2023-02-06T21:20:34.586Z,4.3076923076923075
2023-02-06T21:26:58.601Z,4.046822742474917
2023-02-06T21:33:22.771Z,3.5652173913043477
2023-02-06T21:42:25.757Z,3.9163879598662206
2023-02-06T21:48:48.229Z,3.5953177257525084
2023-02-06T21:55:10.174Z,4.892976588628763
2023-02-06T22:01:31.925Z,4.60200668896321
2023-02-06T22:11:36.005Z,4.889632107023411
2023-02-06T22:21:52.590Z,5.026755852842809
2023-02-06T22:34:56.786Z,4.424749163879599
2023-02-06T22:43:07.916Z,3.959866220735786
2023-02-06T22:52:57.775Z,4.05685618729097
2023-02-06T22:59:20.620Z,3.591973244147157
2023-02-06T23:05:44.259Z,2.9933110367892977
2023-02-06T23:27:47.774Z,3.157190635451505
2023-02-06T23:34:10.391Z,3.1337792642140467
2023-02-06T23:47:19.609Z,3.82943143812709
2023-02-06T23:59:44.393Z,4.535117056856187
